createdAt,value
2022-08-26T00:01:53.246Z,0.70
2022-08-26T00:04:23.533Z,0.70
2022-08-26T00:06:51.529Z,0.50
2022-08-26T00:09:19.161Z,0.60
2022-08-26T00:11:47.182Z,0.63
2022-08-26T00:14:16.430Z,0.60
2022-08-26T00:16:48.093Z,0.70
2022-08-26T00:19:18.329Z,0.40
2022-08-26T00:21:48.640Z,0.50
2022-08-26T00:24:18.927Z,0.60
2022-08-26T00:26:46.509Z,0.55
2022-08-26T00:29:14.029Z,0.65
2022-08-26T00:31:42.831Z,0.65
2022-08-26T00:34:14.170Z,0.45
2022-08-26T00:36:43.492Z,0.63
2022-08-26T00:39:11.385Z,0.70
2022-08-26T00:41:40.486Z,0.45
2022-08-26T00:44:10.367Z,0.50
2022-08-26T00:46:47.185Z,0.52
2022-08-26T00:49:22.670Z,0.60
2022-08-26T00:51:58.953Z,0.63
2022-08-26T00:54:32.974Z,0.50
2022-08-26T00:57:08.667Z,0.60
2022-08-26T00:59:47.132Z,0.60
2022-08-26T01:02:19.918Z,0.57
2022-08-26T01:04:55.495Z,0.50
2022-08-26T01:07:25.363Z,0.40
2022-08-26T01:09:52.996Z,0.52
2022-08-26T01:12:22.157Z,0.50
2022-08-26T01:14:50.203Z,0.60
2022-08-26T01:17:17.715Z,0.32
2022-08-26T01:20:06.958Z,0.40
2022-08-26T01:22:50.549Z,0.50
2022-08-26T01:25:21.072Z,0.57
2022-08-26T01:27:49.269Z,0.47
2022-08-26T01:30:18.637Z,0.40
2022-08-26T01:32:48.848Z,0.60
2022-08-26T01:35:16.182Z,0.40
2022-08-26T01:37:43.803Z,0.50
2022-08-26T01:40:18.964Z,0.68
2022-08-26T01:42:46.884Z,0.40
2022-08-26T01:45:28.392Z,0.70
2022-08-26T01:47:59.139Z,0.60
2022-08-26T01:50:33.361Z,0.57
2022-08-26T01:53:06.303Z,0.43
2022-08-26T01:55:34.424Z,0.40
2022-08-26T01:58:06.580Z,0.50
2022-08-26T02:00:35.334Z,0.50
2022-08-26T02:03:17.680Z,0.45
2022-08-26T02:06:09.298Z,0.60
2022-08-26T02:08:48.091Z,0.50
2022-08-26T02:11:18.563Z,0.50
2022-08-26T02:14:09.761Z,0.40
2022-08-26T02:16:44.300Z,0.40
2022-08-26T02:19:33.093Z,0.40
2022-08-26T02:22:04.731Z,0.60
2022-08-26T02:24:53.127Z,0.40
2022-08-26T02:27:32.477Z,0.30
2022-08-26T02:30:14.784Z,0.40
2022-08-26T02:32:44.765Z,0.40
2022-08-26T02:35:20.002Z,0.50
2022-08-26T02:37:50.075Z,0.40
2022-08-26T02:40:21.666Z,0.35
2022-08-26T02:42:49.236Z,0.30
2022-08-26T02:45:23.360Z,0.40
2022-08-26T02:47:52.473Z,0.43
2022-08-26T02:50:20.465Z,0.40
2022-08-26T02:52:48.510Z,0.40
2022-08-26T02:55:16.872Z,0.50
2022-08-26T02:57:44.563Z,0.50
2022-08-26T03:00:15.219Z,0.60
2022-08-26T03:02:42.659Z,0.40
2022-08-26T03:05:11.365Z,0.40
2022-08-26T03:07:39.196Z,0.43
2022-08-26T03:10:08.778Z,0.40
2022-08-26T03:12:37.020Z,0.50
2022-08-26T03:15:16.621Z,0.50
2022-08-26T03:17:49.148Z,0.47
2022-08-26T03:20:18.213Z,0.50
2022-08-26T03:22:46.541Z,0.45
2022-08-26T03:25:15.976Z,0.50
2022-08-26T03:27:43.339Z,0.50
2022-08-26T03:30:31.666Z,0.40
2022-08-26T03:33:00.966Z,0.50
2022-08-26T03:35:28.326Z,0.30
2022-08-26T03:37:55.986Z,0.40
2022-08-26T03:40:23.759Z,0.40
2022-08-26T03:42:56.355Z,0.30
2022-08-26T03:45:23.629Z,0.40
2022-08-26T03:47:51.968Z,0.47
2022-08-26T03:50:24.332Z,0.40
2022-08-26T03:52:53.403Z,0.40
2022-08-26T03:55:25.449Z,0.63
2022-08-26T03:57:54.513Z,0.63
2022-08-26T04:00:22.949Z,0.40
2022-08-26T04:02:53.190Z,0.40
2022-08-26T04:05:22.769Z,0.50
2022-08-26T04:07:50.838Z,0.47
2022-08-26T04:10:19.457Z,0.32
2022-08-26T04:12:47.797Z,0.40
2022-08-26T04:15:16.276Z,0.40
2022-08-26T04:17:45.347Z,0.50
2022-08-26T04:20:17.150Z,0.55
2022-08-26T04:22:45.636Z,0.47
2022-08-26T04:25:13.716Z,0.73
2022-08-26T04:27:41.212Z,0.63
2022-08-26T04:30:09.664Z,0.30
2022-08-26T04:32:37.507Z,0.40
2022-08-26T04:35:06.449Z,0.40
2022-08-26T04:37:33.973Z,0.32
2022-08-26T04:40:01.363Z,0.40
2022-08-26T04:42:29.941Z,0.50
2022-08-26T04:44:57.288Z,0.30
2022-08-26T04:47:27.153Z,0.50
2022-08-26T04:49:58.235Z,0.60
2022-08-26T04:52:25.548Z,0.60
2022-08-26T04:54:55.463Z,0.30
2022-08-26T04:57:23.479Z,0.40
2022-08-26T04:59:50.739Z,0.40
2022-08-26T05:02:18.122Z,0.45
2022-08-26T05:04:45.434Z,0.57
2022-08-26T05:07:12.901Z,0.40
2022-08-26T05:09:41.275Z,0.40
2022-08-26T05:12:09.653Z,0.50
2022-08-26T05:14:37.116Z,0.50
2022-08-26T05:17:04.736Z,0.50
2022-08-26T05:19:32.844Z,0.70
2022-08-26T05:22:00.200Z,0.40
2022-08-26T05:24:27.497Z,0.50
2022-08-26T05:26:54.771Z,0.40
2022-08-26T05:29:24.108Z,0.40
2022-08-26T05:31:53.394Z,0.60
2022-08-26T05:34:23.372Z,0.40
2022-08-26T05:36:53.200Z,1.10
2022-08-26T05:39:23.450Z,1.45
2022-08-26T05:41:51.216Z,1.10
2022-08-26T05:44:20.982Z,1.17
2022-08-26T05:46:49.677Z,1.02
2022-08-26T05:49:18.698Z,1.17
2022-08-26T05:51:47.615Z,1.30
2022-08-26T05:54:21.274Z,1.38
2022-08-26T05:56:51.120Z,1.33
2022-08-26T05:59:24.397Z,1.40
2022-08-26T06:01:54.607Z,1.70
2022-08-26T06:04:23.017Z,1.42
2022-08-26T06:06:53.986Z,1.65
2022-08-26T06:09:21.437Z,2.00
2022-08-26T06:11:48.837Z,2.28
2022-08-26T06:14:17.822Z,1.80
2022-08-26T06:16:45.888Z,2.65
2022-08-26T06:19:15.649Z,1.85
2022-08-26T06:21:47.282Z,2.30
2022-08-26T06:24:37.600Z,2.53
2022-08-26T06:27:09.514Z,2.50
2022-08-26T06:29:38.739Z,2.00
2022-08-26T06:32:06.829Z,2.30
2022-08-26T06:34:34.242Z,2.45
2022-08-26T06:37:02.697Z,2.13
2022-08-26T06:39:31.715Z,2.50
2022-08-26T06:42:00.135Z,2.25
2022-08-26T06:44:27.820Z,2.22
2022-08-26T06:46:55.389Z,2.33
2022-08-26T06:49:27.406Z,1.90
2022-08-26T06:51:58.084Z,1.90
2022-08-26T06:54:26.964Z,2.20
2022-08-26T06:56:56.797Z,1.90
2022-08-26T06:59:24.604Z,1.60
2022-08-26T07:01:52.361Z,1.95
2022-08-26T07:04:23.180Z,1.77
2022-08-26T07:06:53.092Z,2.10
2022-08-26T07:09:23.114Z,1.40
2022-08-26T07:11:51.592Z,1.75
2022-08-26T07:14:21.376Z,1.70
2022-08-26T07:16:50.607Z,1.58
2022-08-26T07:19:30.607Z,1.48
2022-08-26T07:22:02.109Z,1.60
2022-08-26T07:24:29.709Z,1.33
2022-08-26T07:27:05.961Z,1.27
2022-08-26T07:29:34.368Z,1.58
2022-08-26T07:32:02.210Z,1.30
2022-08-26T07:34:32.164Z,1.50
2022-08-26T07:37:00.738Z,1.48
2022-08-26T07:39:31.544Z,1.50
2022-08-26T07:42:07.506Z,1.67
2022-08-26T07:44:36.582Z,1.52
2022-08-26T07:47:03.884Z,1.40
2022-08-26T07:49:38.470Z,1.50
2022-08-26T07:52:06.807Z,1.38
2022-08-26T07:54:34.089Z,1.20
2022-08-26T07:57:01.543Z,1.08
2022-08-26T07:59:32.654Z,1.02
2022-08-26T08:02:00.680Z,1.10
2022-08-26T08:04:28.184Z,1.27
2022-08-26T08:06:55.929Z,1.30
2022-08-26T08:09:24.288Z,1.20
2022-08-26T08:11:53.009Z,1.33
2022-08-26T08:14:22.349Z,1.35
2022-08-26T08:16:51.110Z,1.23
2022-08-26T08:19:23.773Z,0.80
2022-08-26T08:21:51.533Z,1.05
2022-08-26T08:24:19.639Z,1.10
2022-08-26T08:26:47.859Z,1.10
2022-08-26T08:29:15.098Z,1.00
2022-08-26T08:31:56.948Z,0.88
2022-08-26T08:34:28.304Z,0.90
2022-08-26T08:36:57.146Z,0.95
2022-08-26T08:39:26.236Z,0.90
2022-08-26T08:42:10.992Z,0.85
2022-08-26T08:44:44.409Z,0.98
2022-08-26T08:47:33.957Z,1.00
2022-08-26T08:50:29.003Z,0.85
2022-08-26T08:55:32.342Z,0.80
2022-08-26T08:58:07.848Z,0.80
2022-08-26T09:00:57.862Z,0.90
2022-08-26T09:03:50.589Z,0.90
2022-08-26T09:06:20.365Z,1.00
2022-08-26T09:08:50.673Z,1.00
2022-08-26T09:11:20.170Z,0.80
2022-08-26T09:13:53.532Z,0.98
2022-08-26T09:16:23.748Z,0.90
2022-08-26T09:19:14.521Z,0.80
2022-08-26T09:24:14.198Z,1.00
2022-08-26T09:26:47.430Z,0.75
2022-08-26T09:29:25.530Z,0.70
2022-08-26T09:32:33.036Z,1.00
2022-08-26T09:35:07.979Z,0.98
2022-08-26T09:37:40.425Z,0.70
2022-08-26T09:40:17.399Z,0.90
2022-08-26T09:42:44.856Z,0.90
2022-08-26T09:45:13.820Z,1.15
2022-08-26T09:47:54.190Z,0.70
2022-08-26T09:50:32.314Z,0.80
2022-08-26T09:53:30.282Z,0.70
2022-08-26T09:56:17.299Z,0.63
2022-08-26T09:58:47.350Z,0.68
2022-08-26T10:01:23.718Z,0.60
2022-08-26T10:03:51.947Z,0.65
2022-08-26T10:06:26.555Z,0.60
2022-08-26T10:08:59.085Z,0.60
2022-08-26T10:11:38.258Z,0.90
2022-08-26T10:14:15.285Z,0.80
2022-08-26T10:16:59.549Z,0.60
2022-08-26T10:19:41.622Z,0.70
2022-08-26T10:22:55.315Z,0.98
2022-08-26T10:25:34.433Z,0.63
2022-08-26T10:28:06.460Z,0.77
2022-08-26T10:31:18.213Z,0.70
2022-08-26T10:33:47.472Z,0.60
2022-08-26T10:36:52.331Z,0.80
2022-08-26T10:39:46.242Z,0.73
2022-08-26T10:42:42.804Z,0.75
2022-08-26T10:45:19.775Z,0.70
2022-08-26T10:47:59.184Z,0.65
2022-08-26T10:50:53.054Z,0.73
2022-08-26T10:53:25.417Z,0.55
2022-08-26T10:56:36.911Z,0.70
2022-08-26T10:59:31.615Z,0.82
2022-08-26T11:02:24.693Z,0.50
2022-08-26T11:05:03.083Z,0.52
2022-08-26T11:07:39.296Z,0.60
2022-08-26T11:10:20.427Z,0.60
2022-08-26T11:12:56.932Z,0.50
2022-08-26T11:15:29.188Z,0.52
2022-08-26T11:18:00.315Z,0.85
2022-08-26T11:20:42.144Z,0.65
2022-08-26T11:23:27.129Z,0.50
2022-08-26T11:26:09.459Z,0.47
2022-08-26T11:28:47.768Z,0.70
2022-08-26T11:31:24.465Z,0.55
2022-08-26T11:34:08.865Z,0.70
2022-08-26T11:36:38.578Z,0.68
2022-08-26T11:39:36.879Z,0.73
2022-08-26T11:42:20.269Z,0.55
2022-08-26T11:44:49.095Z,0.60
2022-08-26T11:47:26.716Z,0.52
2022-08-26T11:50:17.492Z,0.60
2022-08-26T11:52:53.468Z,0.50
2022-08-26T11:55:20.951Z,0.65
2022-08-26T11:57:54.782Z,0.60
2022-08-26T12:00:31.386Z,0.50
2022-08-26T12:03:06.664Z,0.40
2022-08-26T12:05:43.464Z,0.88
2022-08-26T12:08:16.266Z,0.70
2022-08-26T12:10:43.759Z,0.50
2022-08-26T12:13:22.592Z,0.60
2022-08-26T12:15:58.326Z,0.60
2022-08-26T12:18:30.241Z,0.73
2022-08-26T12:21:00.696Z,1.08
2022-08-26T12:23:40.342Z,0.80
2022-08-26T12:26:31.120Z,0.77
2022-08-26T12:29:10.852Z,0.70
2022-08-26T12:31:48.106Z,0.70
2022-08-26T12:34:17.732Z,0.80
2022-08-26T12:36:53.998Z,0.60
2022-08-26T12:39:36.544Z,0.80
2022-08-26T12:42:21.527Z,0.60
2022-08-26T12:45:06.472Z,0.50
2022-08-26T12:47:45.894Z,0.70
2022-08-26T12:50:20.795Z,0.60
2022-08-26T12:53:01.729Z,0.60
2022-08-26T12:55:37.838Z,0.60
2022-08-26T12:58:11.140Z,0.80
2022-08-26T13:00:41.364Z,0.85
2022-08-26T13:03:33.784Z,0.40
2022-08-26T13:06:26.243Z,0.70
2022-08-26T13:09:05.663Z,0.55
2022-08-26T13:11:55.703Z,0.50
2022-08-26T13:14:24.683Z,0.60
2022-08-26T13:16:53.143Z,0.75
2022-08-26T13:19:25.524Z,0.52
2022-08-26T13:21:58.448Z,0.77
2022-08-26T13:24:25.684Z,0.80
2022-08-26T13:26:53.115Z,0.60
2022-08-26T13:29:20.680Z,0.50
2022-08-26T13:31:48.341Z,0.70
2022-08-26T13:34:19.435Z,0.60
2022-08-26T13:36:48.730Z,0.40
2022-08-26T13:39:17.342Z,0.60
2022-08-26T13:41:46.245Z,0.57
2022-08-26T13:44:13.780Z,0.65
2022-08-26T13:46:41.429Z,0.70
2022-08-26T13:49:09.357Z,0.60
2022-08-26T13:51:37.640Z,0.50
2022-08-26T13:54:05.380Z,0.60
2022-08-26T13:56:33.547Z,0.70
2022-08-26T13:59:02.088Z,0.73
2022-08-26T14:01:31.467Z,0.60
2022-08-26T14:03:58.883Z,0.90
2022-08-26T14:06:26.333Z,0.40
2022-08-26T14:08:53.688Z,0.60
2022-08-26T14:11:22.321Z,0.60
2022-08-26T14:13:50.317Z,0.50
2022-08-26T14:16:33.307Z,0.63
2022-08-26T14:19:02.147Z,0.77
2022-08-26T14:21:33.367Z,0.70
2022-08-26T14:24:01.191Z,0.52
2022-08-26T14:26:29.901Z,0.45
2022-08-26T14:29:03.775Z,0.70
2022-08-26T14:31:33.012Z,0.60
2022-08-26T14:34:04.016Z,0.68
2022-08-26T14:36:32.353Z,0.70
2022-08-26T14:39:09.201Z,0.63
2022-08-26T14:41:54.159Z,0.57
2022-08-26T14:44:31.147Z,0.70
2022-08-26T14:47:02.099Z,0.60
2022-08-26T14:49:31.097Z,0.60
2022-08-26T14:51:58.412Z,0.60
2022-08-26T14:54:26.063Z,0.60
2022-08-26T14:57:01.747Z,0.60
2022-08-26T14:59:51.450Z,0.70
2022-08-26T15:02:32.668Z,0.70
2022-08-26T15:05:04.419Z,0.65
2022-08-26T15:07:31.786Z,0.75
2022-08-26T15:09:59.096Z,0.65
2022-08-26T15:12:26.700Z,0.90
2022-08-26T15:14:54.028Z,0.50
2022-08-26T15:17:21.340Z,0.65
2022-08-26T15:19:48.654Z,0.77
2022-08-26T15:22:16.093Z,0.70
2022-08-26T15:24:43.361Z,0.50
2022-08-26T15:27:10.868Z,0.73
2022-08-26T15:29:38.401Z,0.80
2022-08-26T15:32:05.949Z,0.70
2022-08-26T15:34:33.578Z,0.70
2022-08-26T15:37:00.803Z,0.65
2022-08-26T15:39:28.381Z,0.80
2022-08-26T15:41:56.186Z,0.80
2022-08-26T15:44:25.249Z,0.70
2022-08-26T15:46:58.263Z,0.57
2022-08-26T15:49:26.268Z,0.60
2022-08-26T15:51:53.601Z,0.70
2022-08-26T15:54:22.970Z,0.70
2022-08-26T15:56:52.441Z,0.90
2022-08-26T15:59:21.482Z,0.70
2022-08-26T16:01:48.920Z,0.77
2022-08-26T16:04:17.559Z,0.65
2022-08-26T16:06:50.217Z,0.70
2022-08-26T16:09:18.609Z,0.70
2022-08-26T16:11:45.881Z,0.70
2022-08-26T16:14:13.115Z,0.60
2022-08-26T16:16:41.555Z,0.70
2022-08-26T16:19:09.317Z,0.70
2022-08-26T16:21:37.226Z,0.73
2022-08-26T16:24:05.776Z,0.82
2022-08-26T16:26:34.815Z,0.93
2022-08-26T16:29:04.440Z,0.55
2022-08-26T16:31:31.756Z,0.70
2022-08-26T16:33:59.114Z,0.70
2022-08-26T16:36:26.740Z,0.85
2022-08-26T16:38:56.397Z,0.80
2022-08-26T16:41:26.840Z,0.95
2022-08-26T16:43:54.804Z,0.70
2022-08-26T16:46:25.695Z,0.68
2022-08-26T16:48:55.942Z,0.68
2022-08-26T16:51:26.878Z,0.90
2022-08-26T16:53:56.257Z,0.70
2022-08-26T16:56:27.718Z,0.82
2022-08-26T16:59:02.504Z,0.75
2022-08-26T17:01:30.062Z,0.80
2022-08-26T17:03:57.637Z,0.70
2022-08-26T17:06:24.947Z,0.88
2022-08-26T17:08:53.025Z,1.00
2022-08-26T17:11:20.441Z,0.95
2022-08-26T17:13:47.709Z,1.08
2022-08-26T17:16:15.745Z,1.20
2022-08-26T17:18:43.179Z,0.70
2022-08-26T17:21:13.498Z,0.80
2022-08-26T17:23:42.861Z,0.73
2022-08-26T17:26:12.065Z,0.80
2022-08-26T17:28:39.619Z,0.85
2022-08-26T17:31:08.212Z,0.90
2022-08-26T17:33:35.563Z,0.90
2022-08-26T17:36:07.677Z,1.13
2022-08-26T17:38:35.754Z,0.90
2022-08-26T17:41:06.307Z,0.85
2022-08-26T17:43:34.244Z,0.82
2022-08-26T17:46:06.928Z,1.00
2022-08-26T17:48:36.225Z,1.42
2022-08-26T17:51:12.494Z,1.70
2022-08-26T17:53:41.306Z,2.13
2022-08-26T17:56:10.261Z,1.77
2022-08-26T17:58:38.036Z,2.22
2022-08-26T18:01:06.353Z,2.72
2022-08-26T18:03:35.071Z,2.05
2022-08-26T18:06:02.557Z,1.98
2022-08-26T18:08:29.790Z,1.77
2022-08-26T18:10:57.060Z,2.05
2022-08-26T18:13:24.324Z,1.63
2022-08-26T18:15:51.604Z,2.00
2022-08-26T18:18:19.031Z,2.10
2022-08-26T18:20:46.806Z,2.70
2022-08-26T18:23:19.855Z,2.75
2022-08-26T18:25:47.107Z,2.05
2022-08-26T18:28:14.414Z,1.95
2022-08-26T18:30:45.071Z,2.00
2022-08-26T18:33:12.770Z,1.70
2022-08-26T18:35:44.970Z,1.73
2022-08-26T18:38:14.263Z,1.92
2022-08-26T18:40:44.882Z,1.92
2022-08-26T18:43:12.232Z,2.00
2022-08-26T18:45:39.514Z,1.80
2022-08-26T18:48:07.085Z,2.10
2022-08-26T18:50:37.588Z,2.88
2022-08-26T18:53:04.931Z,2.22
2022-08-26T18:55:32.427Z,2.53
2022-08-26T18:57:59.996Z,1.85
2022-08-26T19:00:27.612Z,2.63
2022-08-26T19:02:56.096Z,3.15
2022-08-26T19:05:23.572Z,3.90
2022-08-26T19:07:51.671Z,2.40
2022-08-26T19:10:18.985Z,2.35
2022-08-26T19:12:46.575Z,2.53
2022-08-26T19:15:19.654Z,1.90
2022-08-26T19:17:47.779Z,1.60
2022-08-26T19:20:15.223Z,1.80
2022-08-26T19:22:42.483Z,1.60
2022-08-26T19:25:10.209Z,1.70
2022-08-26T19:27:37.612Z,3.72
2022-08-26T19:30:06.873Z,3.50
2022-08-26T19:32:34.135Z,2.90
2022-08-26T19:35:01.417Z,3.47
2022-08-26T19:37:28.695Z,2.40
2022-08-26T19:39:56.490Z,2.88
2022-08-26T19:42:23.813Z,2.90
2022-08-26T19:45:24.382Z,2.88
2022-08-26T19:47:53.483Z,2.50
2022-08-26T19:50:22.064Z,2.10
2022-08-26T19:52:49.621Z,2.58
2022-08-26T19:55:18.554Z,2.20
2022-08-26T19:57:45.851Z,2.67
2022-08-26T20:00:17.982Z,2.10
2022-08-26T20:02:45.609Z,2.72
2022-08-26T20:05:15.102Z,2.17
2022-08-26T20:07:42.425Z,2.60
2022-08-26T20:10:12.891Z,2.03
2022-08-26T20:12:41.648Z,2.47
2022-08-26T20:15:13.402Z,1.90
2022-08-26T20:17:41.345Z,1.98
2022-08-26T20:20:33.484Z,1.98
2022-08-26T20:23:03.598Z,1.52
2022-08-26T20:25:32.637Z,2.00
2022-08-26T20:28:00.785Z,1.95
2022-08-26T20:30:28.536Z,1.70
2022-08-26T20:32:56.256Z,1.73
2022-08-26T20:35:23.980Z,1.83
2022-08-26T20:37:51.302Z,2.00
2022-08-26T20:40:18.796Z,1.85
2022-08-26T20:42:46.110Z,1.80
2022-08-26T20:45:13.369Z,1.75
2022-08-26T20:47:41.687Z,1.88
2022-08-26T20:50:09.299Z,1.65
2022-08-26T20:52:39.599Z,1.92
2022-08-26T20:55:07.369Z,1.58
2022-08-26T20:57:34.689Z,1.75
2022-08-26T21:00:02.239Z,1.50
2022-08-26T21:02:29.662Z,1.50
2022-08-26T21:04:57.559Z,1.30
2022-08-26T21:07:24.928Z,1.60
2022-08-26T21:09:52.204Z,1.50
2022-08-26T21:12:19.760Z,1.40
2022-08-26T21:14:49.685Z,1.92
2022-08-26T21:17:17.493Z,1.50
2022-08-26T21:19:44.879Z,1.38
2022-08-26T21:22:12.352Z,1.38
2022-08-26T21:24:39.847Z,1.85
2022-08-26T21:27:07.182Z,1.42
2022-08-26T21:29:35.675Z,1.63
2022-08-26T21:32:03.592Z,1.40
2022-08-26T21:34:30.923Z,1.50
2022-08-26T21:36:58.607Z,1.48
2022-08-26T21:39:25.900Z,1.33
2022-08-26T21:41:53.181Z,1.60
2022-08-26T21:44:20.482Z,1.30
2022-08-26T21:46:49.015Z,1.50
2022-08-26T21:49:16.892Z,1.40
2022-08-26T21:51:47.166Z,1.20
2022-08-26T21:54:15.156Z,1.27
2022-08-26T21:56:46.618Z,1.38
2022-08-26T21:59:16.210Z,1.38
2022-08-26T22:01:43.968Z,1.27
2022-08-26T22:04:11.555Z,1.20
2022-08-26T22:06:50.147Z,1.20
2022-08-26T22:09:21.828Z,1.30
2022-08-26T22:11:49.467Z,1.15
2022-08-26T22:14:17.828Z,1.48
2022-08-26T22:16:50.287Z,1.50
2022-08-26T22:19:19.874Z,1.45
2022-08-26T22:21:51.973Z,1.30
2022-08-26T22:24:21.758Z,1.40
2022-08-26T22:26:49.594Z,1.38
2022-08-26T22:29:18.618Z,1.50
2022-08-26T22:31:46.082Z,1.33
2022-08-26T22:34:20.503Z,1.40
2022-08-26T22:39:18.980Z,1.38
2022-08-26T22:41:48.717Z,1.45
2022-08-26T22:44:17.894Z,1.33
2022-08-26T22:46:46.600Z,1.70
2022-08-26T22:49:18.051Z,1.38
2022-08-26T22:51:46.474Z,1.40
2022-08-26T22:54:14.647Z,1.20
2022-08-26T22:56:43.368Z,1.50
2022-08-26T22:59:11.210Z,1.55
2022-08-26T23:01:42.325Z,1.50
2022-08-26T23:04:11.009Z,1.38
2022-08-26T23:06:41.102Z,1.38
2022-08-26T23:09:09.709Z,1.17
2022-08-26T23:11:39.618Z,1.45
2022-08-26T23:14:10.196Z,1.13
2022-08-26T23:16:41.518Z,1.58
2022-08-26T23:19:11.325Z,1.30
2022-08-26T23:21:39.097Z,1.30
2022-08-26T23:24:07.267Z,1.38
2022-08-26T23:26:35.894Z,1.30
2022-08-26T23:29:03.638Z,1.30
2022-08-26T23:31:31.212Z,1.40
2022-08-26T23:34:17.298Z,1.30
2022-08-26T23:36:45.712Z,1.38
2022-08-26T23:39:14.662Z,1.30
2022-08-26T23:41:42.566Z,1.55
2022-08-26T23:44:10.083Z,1.38
2022-08-26T23:46:37.431Z,1.40
2022-08-26T23:49:05.263Z,1.23
2022-08-26T23:51:51.717Z,1.40
2022-08-26T23:54:19.656Z,1.38
2022-08-26T23:56:47.005Z,1.13
2022-08-26T23:59:15.179Z,1.30
